createdAt,value
2023-02-04T00:01:35.287Z,2.36
2023-02-04T00:04:08.479Z,2.27
2023-02-04T00:06:41.619Z,2.41
2023-02-04T00:09:17.007Z,2.51
2023-02-04T00:11:51.068Z,2.45
2023-02-04T00:14:24.870Z,2.37
2023-02-04T00:16:59.154Z,2.38
2023-02-04T00:19:32.790Z,2.36
2023-02-04T00:22:07.183Z,2.22
2023-02-04T00:24:43.065Z,2.31
2023-02-04T00:27:16.824Z,2.15
2023-02-04T00:29:50.011Z,2.28
2023-02-04T00:32:23.460Z,2.08
2023-02-04T00:34:57.036Z,2.20
2023-02-04T00:37:30.198Z,2.08
2023-02-04T00:40:05.057Z,2.16
2023-02-04T00:42:38.276Z,2.22
2023-02-04T00:45:12.448Z,2.14
2023-02-04T00:47:45.778Z,2.26
2023-02-04T00:50:19.418Z,2.26
2023-02-04T00:52:52.937Z,2.33
2023-02-04T00:55:27.792Z,2.33
2023-02-04T00:58:01.173Z,2.33
2023-02-04T01:00:34.410Z,2.36
2023-02-04T01:03:07.894Z,2.33
2023-02-04T01:05:41.125Z,2.31
2023-02-04T01:08:14.641Z,2.04
2023-02-04T01:10:49.529Z,2.12
2023-02-04T01:13:23.647Z,2.02
2023-02-04T01:15:57.409Z,2.03
2023-02-04T01:18:30.725Z,2.22
2023-02-04T01:21:04.094Z,2.01
2023-02-04T01:23:37.597Z,2.15
2023-02-04T01:26:12.661Z,2.00
2023-02-04T01:28:46.686Z,2.26
2023-02-04T01:31:20.037Z,2.23
2023-02-04T01:33:53.460Z,2.09
2023-02-04T01:36:26.670Z,2.04
2023-02-04T01:39:01.104Z,2.11
2023-02-04T01:41:36.305Z,2.31
2023-02-04T01:44:10.324Z,2.20
2023-02-04T01:46:43.631Z,2.28
2023-02-04T01:49:17.506Z,2.31
2023-02-04T01:51:50.899Z,2.30
2023-02-04T01:54:24.227Z,2.36
2023-02-04T01:56:58.949Z,2.41
2023-02-04T01:59:32.591Z,2.32
2023-02-04T02:02:39.908Z,2.47
2023-02-04T02:05:16.848Z,2.40
2023-02-04T02:07:51.146Z,2.50
2023-02-04T02:10:25.614Z,2.49
2023-02-04T02:13:00.889Z,2.42
2023-02-04T02:15:34.606Z,2.53
2023-02-04T02:18:07.966Z,2.56
2023-02-04T02:20:43.714Z,2.56
2023-02-04T02:23:22.942Z,2.60
2023-02-04T02:25:57.564Z,2.61
2023-02-04T02:28:31.086Z,2.66
2023-02-04T02:31:05.498Z,2.68
2023-02-04T02:33:39.064Z,2.74
2023-02-04T02:36:12.386Z,2.78
2023-02-04T02:38:45.768Z,2.79
2023-02-04T02:41:20.485Z,2.85
2023-02-04T02:43:53.911Z,2.90
2023-02-04T02:46:27.522Z,2.91
2023-02-04T02:49:01.357Z,2.98
2023-02-04T02:51:34.700Z,3.05
2023-02-04T02:54:09.859Z,3.05
2023-02-04T02:56:44.540Z,3.07
2023-02-04T02:59:19.264Z,2.86
2023-02-04T03:01:57.538Z,2.96
2023-02-04T03:04:33.166Z,2.93
2023-02-04T03:07:07.095Z,2.95
2023-02-04T03:09:40.102Z,2.95
2023-02-04T03:12:15.335Z,2.90
2023-02-04T03:14:49.064Z,2.87
2023-02-04T03:17:23.934Z,2.83
2023-02-04T03:19:57.698Z,2.82
2023-02-04T03:22:31.068Z,2.88
2023-02-04T03:25:04.595Z,2.87
2023-02-04T03:27:39.291Z,2.88
2023-02-04T03:30:13.068Z,2.91
2023-02-04T03:32:46.858Z,2.93
2023-02-04T03:35:20.729Z,2.88
2023-02-04T03:37:54.012Z,2.73
2023-02-04T03:40:27.328Z,2.82
2023-02-04T03:43:02.128Z,2.70
2023-02-04T03:45:44.882Z,2.76
2023-02-04T03:48:18.701Z,2.84
2023-02-04T03:50:52.037Z,2.81
2023-02-04T03:53:25.620Z,2.76
2023-02-04T03:55:59.156Z,2.76
2023-02-04T03:58:34.032Z,2.79
2023-02-04T04:01:07.702Z,2.83
2023-02-04T04:03:41.249Z,2.84
2023-02-04T04:06:14.587Z,2.85
2023-02-04T04:08:47.905Z,2.87
2023-02-04T04:11:22.061Z,2.85
2023-02-04T04:13:57.038Z,2.87
2023-02-04T04:16:30.744Z,2.91
2023-02-04T04:19:04.486Z,2.93
2023-02-04T04:21:38.194Z,2.90
2023-02-04T04:24:11.406Z,2.87
2023-02-04T04:26:44.685Z,2.91
2023-02-04T04:29:19.241Z,2.89
2023-02-04T04:31:52.573Z,2.94
2023-02-04T04:34:26.011Z,2.93
2023-02-04T04:36:59.467Z,2.79
2023-02-04T04:39:33.073Z,2.90
2023-02-04T04:42:06.428Z,2.89
2023-02-04T04:44:41.062Z,2.77
2023-02-04T04:47:14.321Z,2.78
2023-02-04T04:49:47.528Z,2.83
2023-02-04T04:52:20.797Z,2.79
2023-02-04T04:54:54.339Z,2.69
2023-02-04T04:57:28.016Z,2.64
2023-02-04T05:00:02.664Z,2.68
2023-02-04T05:02:35.975Z,2.77
2023-02-04T05:05:09.731Z,2.79
2023-02-04T05:07:43.126Z,2.76
2023-02-04T05:10:17.274Z,2.69
2023-02-04T05:12:51.784Z,2.77
2023-02-04T05:15:27.179Z,2.78
2023-02-04T05:18:01.007Z,2.78
2023-02-04T05:20:34.546Z,2.67
2023-02-04T05:23:08.227Z,2.72
2023-02-04T05:25:41.508Z,2.81
2023-02-04T05:28:15.054Z,2.84
2023-02-04T05:30:51.221Z,2.84
2023-02-04T05:33:24.477Z,2.87
2023-02-04T05:35:58.468Z,2.88
2023-02-04T05:38:31.925Z,2.90
2023-02-04T05:41:05.304Z,2.83
2023-02-04T05:43:38.653Z,2.84
2023-02-04T05:46:13.647Z,2.79
2023-02-04T05:48:46.848Z,2.69
2023-02-04T05:51:20.053Z,2.51
2023-02-04T05:53:53.582Z,2.44
2023-02-04T05:56:26.951Z,2.26
2023-02-04T05:59:00.135Z,2.39
2023-02-04T06:01:34.969Z,2.34
2023-02-04T06:04:08.799Z,2.40
2023-02-04T06:06:42.178Z,2.47
2023-02-04T06:09:15.524Z,2.52
2023-02-04T06:11:50.894Z,2.48
2023-02-04T06:14:24.364Z,2.58
2023-02-04T06:16:59.880Z,2.69
2023-02-04T06:19:33.688Z,2.56
2023-02-04T06:22:06.998Z,2.72
2023-02-04T06:24:40.385Z,2.71
2023-02-04T06:27:13.698Z,2.76
2023-02-04T06:29:47.403Z,2.81
2023-02-04T06:32:22.682Z,2.83
2023-02-04T06:34:56.170Z,2.82
2023-02-04T06:37:30.270Z,2.80
2023-02-04T06:40:03.620Z,2.79
2023-02-04T06:42:36.795Z,2.78
2023-02-04T06:45:10.565Z,2.89
2023-02-04T06:47:45.181Z,2.90
2023-02-04T06:50:19.373Z,2.92
2023-02-04T06:52:53.122Z,2.93
2023-02-04T06:55:26.782Z,2.96
2023-02-04T06:58:00.205Z,2.97
2023-02-04T07:00:34.119Z,2.95
2023-02-04T07:03:09.283Z,2.99
2023-02-04T07:05:42.730Z,3.01
2023-02-04T07:08:16.425Z,2.94
2023-02-04T07:10:50.041Z,2.89
2023-02-04T07:13:23.592Z,3.02
2023-02-04T07:15:57.668Z,2.97
2023-02-04T07:18:32.579Z,2.90
2023-02-04T07:21:06.425Z,2.84
2023-02-04T07:23:39.688Z,2.81
2023-02-04T07:26:13.228Z,2.92
2023-02-04T07:28:47.165Z,2.91
2023-02-04T07:31:20.704Z,2.90
2023-02-04T07:33:55.355Z,2.95
2023-02-04T07:36:28.541Z,2.91
2023-02-04T07:39:02.272Z,2.94
2023-02-04T07:41:35.737Z,2.96
2023-02-04T07:44:09.449Z,3.03
2023-02-04T07:46:43.095Z,2.86
2023-02-04T07:49:18.003Z,2.92
2023-02-04T07:51:51.439Z,2.99
2023-02-04T07:54:24.783Z,3.07
2023-02-04T07:56:57.982Z,3.13
2023-02-04T07:59:31.675Z,3.19
2023-02-04T08:02:05.376Z,3.21
2023-02-04T08:04:40.487Z,3.25
2023-02-04T08:07:13.876Z,3.31
2023-02-04T08:09:47.775Z,3.37
2023-02-04T08:12:21.737Z,3.37
2023-02-04T08:14:55.428Z,3.35
2023-02-04T08:17:28.915Z,3.34
2023-02-04T08:20:04.678Z,3.43
2023-02-04T08:22:39.125Z,3.53
2023-02-04T08:25:12.825Z,3.60
2023-02-04T08:27:46.111Z,3.65
2023-02-04T08:30:19.718Z,3.65
2023-02-04T08:32:53.118Z,3.68
2023-02-04T08:35:28.306Z,3.64
2023-02-04T08:38:01.464Z,3.74
2023-02-04T08:40:35.271Z,3.83
2023-02-04T08:43:08.501Z,3.88
2023-02-04T08:45:41.957Z,3.86
2023-02-04T08:48:15.122Z,3.94
2023-02-04T08:50:49.940Z,3.86
2023-02-04T08:53:23.444Z,4.12
2023-02-04T08:55:56.894Z,4.22
2023-02-04T08:58:30.552Z,4.25
2023-02-04T09:01:04.005Z,4.47
2023-02-04T09:03:37.251Z,4.59
2023-02-04T09:06:12.171Z,4.79
2023-02-04T09:08:45.814Z,4.88
2023-02-04T09:11:19.390Z,5.25
2023-02-04T09:13:55.790Z,5.60
2023-02-04T09:16:29.555Z,5.76
2023-02-04T09:19:03.220Z,5.84
2023-02-04T09:21:37.824Z,5.98
2023-02-04T09:24:11.308Z,6.25
2023-02-04T09:26:44.744Z,6.36
2023-02-04T09:29:17.944Z,6.49
2023-02-04T09:31:51.408Z,6.58
2023-02-04T09:34:24.832Z,6.65
2023-02-04T09:36:59.500Z,6.67
2023-02-04T09:39:32.756Z,6.75
2023-02-04T09:42:06.612Z,6.68
2023-02-04T09:44:40.250Z,6.63
2023-02-04T09:47:15.706Z,6.02
2023-02-04T09:49:48.843Z,6.77
2023-02-04T09:52:24.725Z,6.84
2023-02-04T09:54:58.092Z,6.99
2023-02-04T09:57:31.697Z,7.05
2023-02-04T10:00:09.860Z,7.07
2023-02-04T10:02:43.340Z,6.97
2023-02-04T10:05:18.803Z,6.88
2023-02-04T10:07:53.531Z,6.89
2023-02-04T10:10:28.642Z,6.85
2023-02-04T10:13:05.513Z,6.84
2023-02-04T10:15:39.760Z,6.85
2023-02-04T10:18:20.572Z,6.80
2023-02-04T10:20:56.657Z,6.81
2023-02-04T10:23:31.852Z,6.82
2023-02-04T10:26:05.683Z,6.87
2023-02-04T10:28:40.218Z,7.01
2023-02-04T10:31:30.657Z,6.93
2023-02-04T10:34:10.755Z,7.05
2023-02-04T10:36:46.039Z,7.02
2023-02-04T10:39:22.546Z,7.12
2023-02-04T10:41:57.606Z,7.17
2023-02-04T10:44:33.544Z,7.17
2023-02-04T10:47:09.662Z,7.15
2023-02-04T10:49:52.425Z,7.13
2023-02-04T10:52:32.270Z,7.15
2023-02-04T10:55:11.144Z,7.29
2023-02-04T10:57:46.732Z,7.32
2023-02-04T11:00:21.674Z,7.35
2023-02-04T11:02:59.695Z,7.26
2023-02-04T11:05:35.281Z,7.43
2023-02-04T11:08:22.788Z,7.46
2023-02-04T11:11:00.746Z,7.49
2023-02-04T11:13:46.091Z,7.46
2023-02-04T11:16:27.383Z,7.55
2023-02-04T11:19:02.945Z,7.57
2023-02-04T11:21:45.994Z,7.71
2023-02-04T11:24:27.167Z,7.76
2023-02-04T11:27:10.126Z,8.00
2023-02-04T11:29:43.392Z,8.08
2023-02-04T11:32:32.465Z,8.13
2023-02-04T11:35:33.713Z,8.34
2023-02-04T11:38:26.400Z,8.38
2023-02-04T11:41:01.381Z,8.34
2023-02-04T11:43:37.626Z,8.25
2023-02-04T11:46:16.260Z,8.43
2023-02-04T11:48:53.679Z,8.59
2023-02-04T11:51:32.601Z,8.59
2023-02-04T11:54:06.646Z,8.62
2023-02-04T11:56:40.153Z,8.22
2023-02-04T11:59:17.644Z,8.60
2023-02-04T12:01:51.316Z,8.50
2023-02-04T12:04:26.606Z,8.47
2023-02-04T12:07:01.954Z,8.52
2023-02-04T12:09:35.728Z,8.45
2023-02-04T12:12:10.542Z,8.47
2023-02-04T12:14:46.015Z,8.29
2023-02-04T12:17:21.691Z,8.60
2023-02-04T12:19:55.157Z,8.62
2023-02-04T12:22:28.658Z,8.63
2023-02-04T12:25:01.896Z,8.58
2023-02-04T12:27:35.448Z,8.58
2023-02-04T12:30:12.532Z,8.53
2023-02-04T12:32:46.052Z,8.69
2023-02-04T12:35:19.293Z,8.62
2023-02-04T12:37:52.482Z,8.63
2023-02-04T12:40:26.203Z,8.76
2023-02-04T12:42:59.635Z,8.94
2023-02-04T12:45:35.146Z,8.88
2023-02-04T12:48:08.642Z,9.00
2023-02-04T12:50:42.066Z,8.97
2023-02-04T12:53:15.756Z,8.97
2023-02-04T12:55:49.544Z,8.93
2023-02-04T12:58:23.016Z,9.02
2023-02-04T13:00:57.962Z,9.02
2023-02-04T13:03:32.612Z,8.95
2023-02-04T13:06:06.737Z,8.98
2023-02-04T13:08:40.409Z,9.05
2023-02-04T13:11:13.658Z,8.99
2023-02-04T13:13:48.356Z,9.00
2023-02-04T13:16:24.889Z,8.97
2023-02-04T13:18:58.516Z,8.97
2023-02-04T13:21:32.096Z,8.95
2023-02-04T13:24:05.846Z,8.91
2023-02-04T13:26:39.236Z,8.89
2023-02-04T13:29:13.184Z,8.86
2023-02-04T13:31:48.215Z,8.85
2023-02-04T13:34:21.633Z,8.79
2023-02-04T13:36:55.149Z,8.73
2023-02-04T13:39:28.345Z,8.67
2023-02-04T13:42:04.200Z,8.64
2023-02-04T13:44:37.895Z,8.59
2023-02-04T13:47:12.949Z,8.57
2023-02-04T13:49:46.772Z,8.46
2023-02-04T13:52:21.218Z,8.37
2023-02-04T13:54:56.678Z,8.23
2023-02-04T13:57:30.996Z,8.25
2023-02-04T14:00:05.283Z,8.19
2023-02-04T14:02:40.545Z,8.23
2023-02-04T14:05:13.892Z,8.24
2023-02-04T14:07:46.976Z,8.19
2023-02-04T14:10:23.045Z,8.14
2023-02-04T14:12:58.604Z,8.21
2023-02-04T14:15:32.368Z,8.24
2023-02-04T14:18:07.420Z,8.31
2023-02-04T14:20:40.726Z,8.28
2023-02-04T14:23:13.803Z,8.38
2023-02-04T14:25:47.170Z,8.36
2023-02-04T14:28:20.518Z,8.36
2023-02-04T14:30:54.804Z,8.27
2023-02-04T14:33:29.923Z,8.25
2023-02-04T14:36:03.359Z,8.16
2023-02-04T14:38:38.422Z,7.96
2023-02-04T14:41:16.360Z,8.01
2023-02-04T14:43:49.977Z,7.91
2023-02-04T14:46:24.858Z,7.87
2023-02-04T14:48:59.922Z,7.81
2023-02-04T14:51:33.432Z,7.81
2023-02-04T14:54:06.758Z,7.79
2023-02-04T14:56:40.218Z,7.73
2023-02-04T14:59:13.527Z,7.64
2023-02-04T15:01:47.158Z,7.67
2023-02-04T15:04:22.345Z,7.50
2023-02-04T15:06:57.600Z,7.50
2023-02-04T15:09:31.258Z,7.41
2023-02-04T15:12:06.243Z,7.34
2023-02-04T15:14:40.219Z,7.34
2023-02-04T15:17:13.994Z,7.21
2023-02-04T15:19:49.148Z,7.21
2023-02-04T15:22:22.468Z,7.21
2023-02-04T15:24:55.640Z,7.15
2023-02-04T15:27:29.734Z,7.10
2023-02-04T15:30:04.119Z,7.09
2023-02-04T15:32:37.632Z,7.01
2023-02-04T15:35:12.522Z,7.00
2023-02-04T15:37:45.884Z,6.92
2023-02-04T15:40:19.625Z,6.89
2023-02-04T15:42:53.321Z,6.85
2023-02-04T15:45:26.679Z,6.78
2023-02-04T15:48:00.292Z,6.75
2023-02-04T15:50:35.284Z,6.73
2023-02-04T15:53:09.448Z,6.71
2023-02-04T15:55:42.977Z,6.62
2023-02-04T15:58:16.750Z,6.61
2023-02-04T16:00:50.047Z,6.54
2023-02-04T16:03:23.376Z,6.51
2023-02-04T16:05:57.935Z,6.48
2023-02-04T16:08:31.985Z,6.41
2023-02-04T16:11:06.214Z,6.35
2023-02-04T16:13:39.943Z,6.30
2023-02-04T16:16:15.735Z,6.29
2023-02-04T16:18:49.276Z,6.23
2023-02-04T16:21:24.242Z,6.24
2023-02-04T16:23:57.473Z,6.17
2023-02-04T16:26:32.317Z,6.20
2023-02-04T16:29:05.588Z,6.18
2023-02-04T16:31:38.889Z,6.18
2023-02-04T16:34:12.354Z,6.12
2023-02-04T16:36:47.057Z,6.13
2023-02-04T16:39:20.361Z,6.08
2023-02-04T16:41:53.969Z,6.05
2023-02-04T16:44:27.159Z,6.08
2023-02-04T16:47:00.454Z,6.05
2023-02-04T16:49:33.687Z,6.01
2023-02-04T16:52:08.345Z,6.03
2023-02-04T16:54:42.431Z,5.98
2023-02-04T16:57:15.910Z,6.01
2023-02-04T16:59:49.669Z,6.03
2023-02-04T17:02:22.884Z,6.02
2023-02-04T17:04:56.244Z,5.97
2023-02-04T17:07:30.988Z,5.98
2023-02-04T17:10:04.657Z,5.91
2023-02-04T17:12:38.626Z,5.91
2023-02-04T17:15:13.911Z,5.84
2023-02-04T17:17:47.511Z,5.78
2023-02-04T17:20:20.730Z,5.76
2023-02-04T17:22:56.535Z,5.72
2023-02-04T17:25:30.126Z,5.71
2023-02-04T17:28:03.783Z,5.72
2023-02-04T17:30:37.777Z,5.60
2023-02-04T17:33:11.248Z,5.69
2023-02-04T17:35:44.507Z,5.67
2023-02-04T17:38:19.309Z,5.61
2023-02-04T17:40:55.014Z,5.61
2023-02-04T17:43:28.819Z,5.61
2023-02-04T17:46:02.601Z,5.58
2023-02-04T17:48:36.026Z,5.56
2023-02-04T17:51:09.695Z,5.63
2023-02-04T17:53:44.299Z,5.60
2023-02-04T17:56:17.699Z,5.59
2023-02-04T17:58:50.954Z,5.50
2023-02-04T18:01:25.333Z,5.55
2023-02-04T18:03:59.649Z,5.61
2023-02-04T18:06:32.927Z,5.57
2023-02-04T18:09:15.826Z,5.58
2023-02-04T18:11:49.500Z,5.51
2023-02-04T18:14:28.821Z,5.52
2023-02-04T18:17:07.808Z,5.45
2023-02-04T18:19:44.466Z,5.46
2023-02-04T18:22:18.844Z,5.46
2023-02-04T18:24:53.800Z,5.39
2023-02-04T18:27:32.271Z,5.40
2023-02-04T18:30:20.019Z,5.43
2023-02-04T18:32:55.422Z,5.41
2023-02-04T18:35:42.859Z,5.34
2023-02-04T18:38:24.849Z,5.25
2023-02-04T18:41:10.633Z,5.22
2023-02-04T18:43:48.237Z,5.15
2023-02-04T18:46:26.543Z,5.06
2023-02-04T18:49:08.902Z,5.05
2023-02-04T18:51:44.838Z,5.01
2023-02-04T18:54:35.702Z,4.89
2023-02-04T18:57:35.599Z,4.94
2023-02-04T19:00:34.667Z,4.96
2023-02-04T19:03:25.228Z,4.83
2023-02-04T19:06:00.802Z,4.83
2023-02-04T19:08:43.913Z,4.76
2023-02-04T19:11:28.852Z,4.75
2023-02-04T19:14:13.396Z,4.65
2023-02-04T19:16:48.075Z,4.50
2023-02-04T19:19:39.560Z,4.35
2023-02-04T19:22:19.729Z,4.29
2023-02-04T19:24:58.681Z,4.19
2023-02-04T19:27:36.235Z,4.18
2023-02-04T19:30:46.879Z,3.82
2023-02-04T19:33:26.779Z,3.97
2023-02-04T19:36:02.076Z,4.03
2023-02-04T19:38:41.254Z,3.76
2023-02-04T19:41:27.857Z,3.63
2023-02-04T19:44:28.384Z,3.63
2023-02-04T19:47:29.716Z,3.68
2023-02-04T19:50:21.770Z,3.57
2023-02-04T19:53:02.368Z,3.39
2023-02-04T19:55:38.162Z,3.53
2023-02-04T19:58:17.933Z,3.58
2023-02-04T20:00:59.548Z,3.55
2023-02-04T20:03:38.121Z,3.47
2023-02-04T20:06:33.527Z,3.26
2023-02-04T20:09:15.120Z,3.52
2023-02-04T20:11:58.601Z,3.35
2023-02-04T20:14:52.483Z,3.33
2023-02-04T20:17:36.647Z,3.26
2023-02-04T20:20:27.847Z,3.21
2023-02-04T20:23:02.331Z,3.24
2023-02-04T20:25:41.268Z,3.26
2023-02-04T20:28:45.864Z,3.29
2023-02-04T20:31:40.008Z,3.03
2023-02-04T20:34:18.926Z,2.93
2023-02-04T20:36:55.285Z,2.90
2023-02-04T20:39:40.799Z,2.70
2023-02-04T20:42:45.099Z,2.56
2023-02-04T20:45:33.477Z,2.43
2023-02-04T20:48:28.694Z,2.36
2023-02-04T20:51:04.064Z,2.23
2023-02-04T20:53:40.298Z,2.02
2023-02-04T20:56:24.430Z,1.96
2023-02-04T20:59:10.545Z,2.05
2023-02-04T21:01:45.154Z,2.07
2023-02-04T21:04:22.209Z,1.86
2023-02-04T21:06:58.606Z,1.74
2023-02-04T21:09:37.546Z,1.80
2023-02-04T21:12:12.832Z,1.80
2023-02-04T21:14:46.645Z,1.75
2023-02-04T21:17:19.901Z,1.83
2023-02-04T21:19:53.572Z,1.91
2023-02-04T21:22:27.218Z,1.88
2023-02-04T21:25:02.030Z,1.76
2023-02-04T21:27:35.256Z,1.80
2023-02-04T21:30:10.438Z,1.87
2023-02-04T21:32:43.685Z,1.97
2023-02-04T21:35:21.377Z,1.97
2023-02-04T21:37:55.518Z,2.04
2023-02-04T21:40:30.540Z,1.97
2023-02-04T21:43:06.385Z,2.02
2023-02-04T21:45:39.875Z,2.02
2023-02-04T21:48:14.738Z,2.04
2023-02-04T21:50:48.204Z,2.10
2023-02-04T21:53:21.528Z,2.02
2023-02-04T21:55:57.874Z,2.07
2023-02-04T21:58:32.240Z,1.97
2023-02-04T22:01:06.259Z,1.96
2023-02-04T22:03:40.183Z,1.99
2023-02-04T22:06:13.571Z,1.96
2023-02-04T22:08:46.875Z,1.97
2023-02-04T22:11:21.444Z,2.11
2023-02-04T22:13:55.133Z,2.01
2023-02-04T22:16:28.830Z,2.01
2023-02-04T22:19:02.253Z,1.96
2023-02-04T22:21:36.406Z,2.03
2023-02-04T22:24:09.830Z,2.11
2023-02-04T22:26:44.506Z,2.10
2023-02-04T22:29:21.705Z,2.15
2023-02-04T22:31:55.028Z,2.13
2023-02-04T22:34:28.569Z,2.18
2023-02-04T22:37:01.878Z,2.23
2023-02-04T22:39:35.301Z,2.26
2023-02-04T22:42:09.857Z,2.25
2023-02-04T22:44:43.203Z,2.30
2023-02-04T22:47:16.563Z,2.23
2023-02-04T22:49:49.775Z,2.36
2023-02-04T22:52:24.449Z,2.38
2023-02-04T22:54:58.333Z,2.37
2023-02-04T22:57:33.040Z,2.36
2023-02-04T23:00:10.171Z,2.35
2023-02-04T23:02:43.680Z,2.48
2023-02-04T23:05:17.083Z,2.47
2023-02-04T23:07:50.565Z,2.47
2023-02-04T23:10:24.246Z,2.48
2023-02-04T23:13:01.443Z,2.49
2023-02-04T23:15:35.603Z,2.49
2023-02-04T23:18:09.487Z,2.53
2023-02-04T23:20:43.020Z,2.36
2023-02-04T23:23:17.616Z,2.39
2023-02-04T23:25:51.403Z,2.29
2023-02-04T23:28:26.259Z,2.19
2023-02-04T23:30:59.920Z,2.15
2023-02-04T23:33:33.059Z,2.20
2023-02-04T23:36:07.282Z,2.15
2023-02-04T23:38:40.465Z,2.19
2023-02-04T23:41:13.925Z,2.14
2023-02-04T23:43:48.859Z,1.95
2023-02-04T23:46:22.080Z,2.03
2023-02-04T23:48:55.330Z,2.04
2023-02-04T23:51:28.584Z,1.85
2023-02-04T23:54:02.246Z,2.02
2023-02-04T23:56:35.524Z,1.97
2023-02-04T23:59:10.469Z,1.98
